| time (UTC) | temp F | wind direction | speed knots | gust knots | rain 1hr in | rain 24hr in | rain mn in | humidity % | barometer mb |
| 20260510180305 | 60 | 248 | 0.9 | 1.7 | 0.00 | 0.07 | 0.07 | 49 | 1009.8 |
| 20260510175802 | 59 | 324 | 3.5 | 4.3 | 0.00 | 0.07 | 0.07 | 50 | 1009.5 |
| 20260510175257 | 59 | 263 | 1.7 | 1.7 | 0.00 | 0.07 | 0.07 | 46 | 1009.8 |
| 20260510174754 | 61 | 321 | 3.5 | 4.3 | 0.00 | 0.07 | 0.07 | 52 | 1009.7 |
| 20260510174252 | 60 | 224 | 1.7 | 2.6 | 0.00 | 0.07 | 0.07 | 51 | 1010.1 |
| 20260510173748 | 59 | 352 | 1.7 | 1.7 | 0.00 | 0.07 | 0.07 | 51 | 1010.0 |
| 20260510173243 | 59 | 307 | 4.3 | 5.2 | 0.00 | 0.07 | 0.07 | 53 | 1009.8 |
| 20260510172739 | 58 | 237 | 0.9 | 1.7 | 0.00 | 0.07 | 0.07 | 52 | 1010.1 |
| 20260510172235 | 59 | 20 | 3.5 | 4.3 | 0.00 | 0.07 | 0.07 | 53 | 1010.1 |
| 20260510171733 | 59 | 301 | 1.7 | 2.6 | 0.00 | 0.07 | 0.07 | 56 | 1010.2 |
| 20260510171230 | 58 | 222 | 1.7 | 1.7 | 0.00 | 0.07 | 0.07 | 55 | 1010.2 |
| 20260510170727 | 58 | 102 | 4.3 | 5.2 | 0.00 | 0.07 | 0.07 | 56 | 1010.3 |
| 20260510170223 | 58 | 309 | 6.1 | 7.0 | 0.00 | 0.07 | 0.07 | 57 | 1010.3 |
| 20260510165718 | 59 | 325 | 4.3 | 5.2 | 0.00 | 0.07 | 0.07 | 53 | 1010.4 |
| 20260510165215 | 57 | 257 | 1.7 | 1.7 | 0.00 | 0.07 | 0.07 | 57 | 1010.5 |
| 20260510164712 | 57 | 35 | 2.6 | 2.6 | 0.00 | 0.07 | 0.07 | 55 | 1010.2 |
| 20260510164210 | 57 | 2 | 5.2 | 6.1 | 0.00 | 0.07 | 0.07 | 59 | 1010.4 |
| 20260510163705 | 57 | 52 | 2.6 | 2.6 | 0.00 | 0.07 | 0.07 | 59 | 1010.2 |
| 20260510163201 | 56 | 47 | 4.3 | 6.1 | 0.00 | 0.07 | 0.07 | 57 | 1010.3 |
| 20260510162700 | 56 | 50 | 6.1 | 6.1 | 0.00 | 0.07 | 0.07 | 57 | 1010.2 |
| 20260510162157 | 57 | 37 | 5.2 | 7.0 | 0.00 | 0.07 | 0.07 | 57 | 1010.1 |
| 20260510161653 | 56 | 326 | 2.6 | 2.6 | 0.00 | 0.07 | 0.07 | 57 | 1010.2 |
| 20260510161150 | 56 | 251 | 2.6 | 2.6 | 0.00 | 0.07 | 0.07 | 60 | 1010.2 |
| 20260510160647 | 57 | 326 | 3.5 | 4.3 | 0.00 | 0.07 | 0.07 | 59 | 1010.2 |
| 20260510160142 | 56 | 291 | 2.6 | 2.6 | 0.00 | 0.07 | 0.07 | 60 | 1010.2 |
| 20260510155638 | 56 | 349 | 2.6 | 5.2 | 0.00 | 0.07 | 0.07 | 61 | 1010.1 |
| 20260510155134 | 55 | 25 | 3.5 | 4.3 | 0.00 | 0.07 | 0.07 | 58 | 1010.1 |
| 20260510154630 | 56 | 268 | 2.6 | 4.3 | 0.00 | 0.07 | 0.07 | 62 | 1009.7 |
| 20260510154126 | 56 | 14 | 2.6 | 2.6 | 0.00 | 0.07 | 0.07 | 64 | 1010.1 |
| 20260510153621 | 56 | 19 | 4.3 | 6.1 | 0.00 | 0.07 | 0.07 | 66 | 1009.9 |
| 20260510153118 | 57 | 57 | 4.3 | 5.2 | 0.00 | 0.07 | 0.07 | 64 | 1009.8 |
| 20260510152615 | 56 | 273 | 1.7 | 1.7 | 0.00 | 0.07 | 0.07 | 64 | 1009.7 |
| 20260510152111 | 55 | 48 | 5.2 | 7.0 | 0.00 | 0.07 | 0.07 | 66 | 1009.5 |
| 20260510151607 | 54 | 12 | 2.6 | 2.6 | 0.00 | 0.07 | 0.07 | 67 | 1009.6 |
| 20260510151106 | 55 | 338 | 2.6 | 2.6 | 0.00 | 0.07 | 0.07 | 67 | 1009.6 |
| 20260510150600 | 54 | 4 | 3.5 | 5.2 | 0.00 | 0.07 | 0.07 | 70 | 1009.5 |
| 20260510150056 | 55 | 15 | 6.1 | 7.0 | 0.00 | 0.07 | 0.07 | 68 | 1009.5 |
| 20260510145553 | 54 | 350 | 2.6 | 4.3 | 0.00 | 0.07 | 0.07 | 68 | 1009.2 |
| 20260510145049 | 53 | 2 | 4.3 | 5.2 | 0.00 | 0.07 | 0.07 | 72 | 1009.2 |
| 20260510144546 | 53 | 332 | 1.7 | 1.7 | 0.00 | 0.07 | 0.07 | 71 | 1009.0 |
| 20260510144042 | 53 | 11 | 5.2 | 6.1 | 0.00 | 0.07 | 0.07 | 73 | 1009.1 |
| 20260510143537 | 53 | 338 | 3.5 | 4.3 | 0.00 | 0.07 | 0.07 | 74 | 1009.0 |
| 20260510143034 | 53 | 358 | 6.1 | 7.8 | 0.00 | 0.07 | 0.07 | 75 | 1008.6 |
| 20260510142531 | 53 | 67 | 4.3 | 5.2 | 0.00 | 0.07 | 0.07 | 75 | 1009.0 |
| 20260510142027 | 53 | 10 | 3.5 | 5.2 | 0.00 | 0.07 | 0.07 | 77 | 1008.8 |
| 20260510141524 | 53 | 323 | 3.5 | 4.3 | 0.00 | 0.07 | 0.07 | 78 | 1008.8 |
| 20260510141022 | 52 | 358 | 6.1 | 7.8 | 0.00 | 0.07 | 0.07 | 78 | 1008.5 |
| 20260510140517 | 52 | 353 | 5.2 | 7.8 | 0.00 | 0.07 | 0.07 | 79 | 1008.5 |
| 20260510140012 | 52 | 0 | 4.3 | 6.1 | 0.00 | 0.07 | 0.07 | 80 | 1008.7 |
| 20260510135508 | 51 | 341 | 3.5 | 5.2 | 0.00 | 0.07 | 0.07 | 80 | 1008.7 |
| 20260510135004 | 51 | 291 | 2.6 | 2.6 | 0.00 | 0.07 | 0.07 | 82 | 1008.8 |
| 20260510134501 | 51 | 316 | 3.5 | 4.3 | 0.00 | 0.07 | 0.07 | 82 | 1008.7 |
| 20260510133958 | 51 | 343 | 5.2 | 6.1 | 0.00 | 0.07 | 0.07 | 82 | 1008.7 |
| 20260510133454 | 51 | 341 | 1.7 | 1.7 | 0.00 | 0.07 | 0.07 | 83 | 1008.7 |
| 20260510132950 | 50 | 316 | 2.6 | 2.6 | 0.00 | 0.07 | 0.07 | 84 | 1008.4 |
| 20260510132447 | 50 | 244 | 0.9 | 0.9 | 0.00 | 0.07 | 0.07 | 85 | 1008.4 |
| 20260510131944 | 50 | 259 | 0.9 | 0.9 | 0.00 | 0.07 | 0.07 | 86 | 1008.4 |
| 20260510131442 | 49 | 237 | 0.0 | 0.0 | 0.00 | 0.07 | 0.07 | 87 | 1008.4 |
| 20260510130939 | 49 | 234 | 0.9 | 0.9 | 0.00 | 0.07 | 0.07 | 90 | 1008.4 |
| 20260510130435 | 48 | 250 | 0.9 | 0.9 | 0.00 | 0.07 | 0.07 | 92 | 1008.4 |
| 20260510125932 | 48 | 240 | 0.0 | 0.0 | 0.00 | 0.07 | 0.07 | 94 | 1008.3 |
| 20260510125428 | 48 | 233 | 0.0 | 0.0 | 0.00 | 0.07 | 0.07 | 95 | 1008.3 |
| 20260510124925 | 48 | 232 | 0.0 | 0.0 | 0.00 | 0.07 | 0.07 | 95 | 1008.1 |
| 20260510124422 | 48 | 232 | 0.0 | 0.0 | 0.00 | 0.07 | 0.07 | 95 | 1008.0 |
| 20260510123918 | 47 | 232 | 0.0 | 0.0 | 0.00 | 0.07 | 0.07 | 95 | 1007.6 |
| 20260510123414 | 47 | 232 | 0.0 | 0.0 | 0.00 | 0.07 | 0.07 | 95 | 1007.4 |
| 20260510122910 | 47 | 232 | 0.0 | 0.0 | 0.00 | 0.07 | 0.07 | 95 | 1007.7 |
| 20260510122405 | 47 | 232 | 0.0 | 0.0 | 0.00 | 0.07 | 0.07 | 95 | 1007.4 |
| 20260510121902 | 47 | 232 | 0.0 | 0.0 | 0.00 | 0.07 | 0.07 | 95 | 1007.3 |
| 20260510121359 | 47 | 232 | 0.0 | 0.0 | 0.00 | 0.07 | 0.07 | 95 | 1007.2 |
| 20260510120856 | 47 | 232 | 0.0 | 0.0 | 0.00 | 0.07 | 0.07 | 95 | 1007.3 |
| 20260510120354 | 47 | 232 | 0.0 | 0.0 | 0.00 | 0.07 | 0.07 | 94 | 1007.0 |
| 20260510115849 | 47 | 232 | 0.0 | 0.0 | 0.00 | 0.07 | 0.07 | 94 | 1007.1 |
| 20260510115346 | 47 | 232 | 0.0 | 0.0 | 0.05 | 0.07 | 0.07 | 94 | 1006.8 |
| 20260510114842 | 47 | 232 | 0.0 | 0.0 | 0.05 | 0.07 | 0.07 | 93 | 1006.7 |
| 20260510114339 | 47 | 225 | 0.0 | 0.0 | 0.00 | 0.06 | 0.06 | 93 | 1007.0 |
| 20260510113839 | 47 | 237 | 0.0 | 0.0 | 0.00 | 0.06 | 0.06 | 93 | 1006.8 |
| 20260510113336 | 46 | 236 | 0.0 | 0.0 | 0.00 | 0.06 | 0.06 | 94 | 1006.4 |
| 20260510112833 | 46 | 236 | 0.0 | 0.0 | 0.00 | 0.06 | 0.06 | 95 | 1005.9 |
| 20260510112330 | 46 | 231 | 0.0 | 0.0 | 0.00 | 0.06 | 0.06 | 95 | 1006.0 |
| 20260510111826 | 46 | 231 | 0.0 | 0.0 | 0.00 | 0.06 | 0.06 | 95 | 1006.4 |
| 20260510111323 | 46 | 231 | 0.0 | 0.0 | 0.00 | 0.06 | 0.06 | 95 | 1006.1 |
| 20260510110823 | 46 | 231 | 0.0 | 0.0 | 0.00 | 0.06 | 0.06 | 95 | 1006.1 |
| 20260510110320 | 46 | 231 | 0.0 | 0.0 | 0.00 | 0.06 | 0.06 | 95 | 1006.0 |
| 20260510105816 | 45 | 231 | 0.0 | 0.0 | 0.00 | 0.06 | 0.06 | 96 | 1005.6 |
| 20260510105310 | 45 | 231 | 0.0 | 0.0 | 0.00 | 0.06 | 0.06 | 96 | 1005.3 |
| 20260510104807 | 46 | 231 | 0.0 | 0.0 | 0.00 | 0.06 | 0.06 | 96 | 1005.7 |
| 20260510104305 | 46 | 231 | 0.0 | 0.0 | 0.00 | 0.06 | 0.06 | 96 | 1005.7 |
| 20260510103801 | 45 | 231 | 0.0 | 0.0 | 0.00 | 0.06 | 0.06 | 96 | 1005.4 |
| 20260510103257 | 45 | 231 | 0.0 | 0.0 | 0.00 | 0.06 | 0.06 | 96 | 1005.3 |
| 20260510102752 | 46 | 231 | 0.0 | 0.0 | 0.00 | 0.06 | 0.06 | 96 | 1005.2 |
| 20260510102248 | 45 | 231 | 0.0 | 0.0 | 0.00 | 0.06 | 0.06 | 97 | 1005.1 |
| 20260510101746 | 45 | 231 | 0.0 | 0.0 | 0.00 | 0.06 | 0.06 | 97 | 1004.8 |
| 20260510101244 | 45 | 231 | 0.0 | 0.0 | 0.00 | 0.06 | 0.06 | 97 | 1004.8 |
| 20260510100739 | 45 | 231 | 0.0 | 0.0 | 0.00 | 0.06 | 0.06 | 97 | 1004.9 |
| 20260510100238 | 45 | 231 | 0.0 | 0.0 | 0.00 | 0.06 | 0.06 | 97 | 1004.9 |
| 20260510095733 | 45 | 231 | 0.0 | 0.0 | 0.00 | 0.06 | 0.06 | 97 | 1004.7 |
| 20260510095228 | 45 | 231 | 0.0 | 0.0 | 0.00 | 0.06 | 0.06 | 97 | 1004.9 |
| 20260510094727 | 45 | 231 | 0.0 | 0.0 | 0.00 | 0.06 | 0.06 | 97 | 1004.6 |
| 20260510094223 | 45 | 231 | 0.0 | 0.0 | 0.00 | 0.06 | 0.06 | 97 | 1004.7 |
| 20260510093719 | 45 | 231 | 0.0 | 0.0 | 0.00 | 0.06 | 0.06 | 97 | 1004.6 |
| 20260510093217 | 45 | 231 | 0.0 | 0.0 | 0.00 | 0.06 | 0.06 | 97 | 1004.5 |
| 20260510092713 | 45 | 231 | 0.0 | 0.0 | 0.00 | 0.06 | 0.06 | 97 | 1004.3 |
| 20260510092208 | 46 | 231 | 0.0 | 0.9 | 0.00 | 0.06 | 0.06 | 97 | 1004.3 |
| 20260510091704 | 46 | 231 | 0.0 | 0.0 | 0.00 | 0.06 | 0.06 | 96 | 1004.2 |
| 20260510091201 | 46 | 231 | 0.0 | 0.0 | 0.00 | 0.06 | 0.06 | 96 | 1004.3 |
| 20260510090657 | 46 | 231 | 0.0 | 0.0 | 0.00 | 0.06 | 0.06 | 96 | 1003.9 |
| 20260510090154 | 46 | 231 | 0.0 | 0.0 | 0.00 | 0.06 | 0.06 | 96 | 1004.0 |
| 20260510085649 | 46 | 231 | 0.0 | 0.0 | 0.00 | 0.06 | 0.06 | 96 | 1004.0 |
| 20260510085144 | 47 | 231 | 0.0 | 0.0 | 0.00 | 0.06 | 0.06 | 95 | 1003.7 |
| 20260510084641 | 47 | 230 | 0.0 | 0.9 | 0.00 | 0.06 | 0.06 | 96 | 1003.7 |
| 20260510084138 | 47 | 233 | 0.0 | 0.0 | 0.00 | 0.06 | 0.06 | 96 | 1003.6 |
| 20260510083635 | 47 | 233 | 0.0 | 0.0 | 0.00 | 0.06 | 0.06 | 96 | 1003.6 |
| 20260510083132 | 48 | 222 | 0.0 | 0.0 | 0.00 | 0.06 | 0.06 | 96 | 1003.3 |
| 20260510082628 | 48 | 236 | 0.0 | 0.0 | 0.00 | 0.06 | 0.06 | 96 | 1003.3 |
| 20260510082124 | 48 | 234 | 0.0 | 0.0 | 0.00 | 0.06 | 0.06 | 97 | 1003.6 |
| 20260510081623 | 49 | 234 | 0.0 | 0.0 | 0.00 | 0.06 | 0.06 | 97 | 1003.3 |
| 20260510081119 | 48 | 240 | 0.9 | 1.7 | 0.00 | 0.06 | 0.06 | 98 | 1003.5 |
| 20260510080613 | 50 | 238 | 0.0 | 0.0 | 0.00 | 0.06 | 0.06 | 98 | 1003.2 |
| 20260510080111 | 50 | 234 | 0.0 | 0.0 | 0.00 | 0.06 | 0.06 | 98 | 1003.1 |
| 20260510075608 | 50 | 296 | 1.7 | 1.7 | 0.00 | 0.06 | 0.06 | 98 | 1003.2 |
| 20260510075105 | 51 | 238 | 0.9 | 0.9 | 0.00 | 0.06 | 0.06 | 98 | 1003.2 |
| 20260510074602 | 50 | 237 | 0.0 | 0.0 | 0.00 | 0.06 | 0.06 | 99 | 1002.9 |
| 20260510074057 | 50 | 235 | 0.0 | 0.0 | 0.00 | 0.06 | 0.06 | 98 | 1003.0 |
| 20260510073553 | 51 | 234 | 0.0 | 0.0 | 0.00 | 0.06 | 0.06 | 98 | 1002.8 |
| 20260510073051 | 51 | 232 | 0.0 | 0.9 | 0.00 | 0.06 | 0.06 | 99 | 1002.8 |
| 20260510072547 | 51 | 230 | 0.0 | 0.0 | 0.00 | 0.06 | 0.06 | 98 | 1002.7 |
| 20260510072043 | 51 | 244 | 0.9 | 0.9 | 0.00 | 0.06 | 0.06 | 98 | 1002.8 |
| 20260510071539 | 51 | 239 | 0.0 | 0.0 | 0.00 | 0.06 | 0.06 | 98 | 1002.6 |
| 20260510071038 | 51 | 239 | 0.0 | 0.0 | 0.00 | 0.06 | 0.06 | 98 | 1002.5 |
| 20260510070534 | 51 | 240 | 0.0 | 0.0 | 0.00 | 0.06 | 0.06 | 98 | 1002.5 |
| 20260510070031 | 51 | 238 | 0.0 | 0.0 | 0.00 | 0.06 | 0.06 | 98 | 1002.4 |
| 20260510065527 | 51 | 239 | 0.0 | 0.0 | 0.00 | 0.06 | 0.06 | 98 | 1002.6 |
| 20260510065023 | 51 | 238 | 0.0 | 0.0 | 0.00 | 0.06 | 0.06 | 98 | 1002.3 |
| 20260510064520 | 51 | 234 | 0.0 | 0.0 | 0.00 | 0.06 | 0.06 | 98 | 1002.4 |
| 20260510064017 | 51 | 234 | 0.0 | 0.0 | 0.00 | 0.06 | 0.06 | 98 | 1002.3 |
| 20260510063513 | 51 | 240 | 0.0 | 0.0 | 0.00 | 0.06 | 0.06 | 98 | 1002.4 |
| 20260510063011 | 51 | 241 | 0.0 | 0.0 | 0.00 | 0.06 | 0.06 | 98 | 1002.4 |
| 20260510062506 | 51 | 239 | 0.0 | 0.0 | 0.00 | 0.06 | 0.06 | 98 | 1002.1 |
| 20260510062001 | 52 | 228 | 0.9 | 0.9 | 0.00 | 0.06 | 0.06 | 98 | 1002.2 |
| 20260510061459 | 51 | 232 | 0.0 | 0.0 | 0.00 | 0.06 | 0.06 | 98 | 1002.1 |
| 20260510060955 | 51 | 233 | 0.0 | 0.0 | 0.00 | 0.06 | 0.06 | 98 | 1002.1 |
| 20260510060452 | 51 | 243 | 0.0 | 0.0 | 0.00 | 0.06 | 0.06 | 97 | 1002.0 |
| 20260510055948 | 52 | 233 | 0.0 | 0.0 | 0.00 | 0.06 | 0.06 | 97 | 1001.9 |
| 20260510055444 | 52 | 230 | 0.0 | 0.0 | 0.00 | 0.06 | 0.06 | 97 | 1001.8 |
| 20260510054943 | 52 | 230 | 0.0 | 0.9 | 0.00 | 0.06 | 0.06 | 97 | 1001.9 |
| 20260510054437 | 53 | 230 | 0.0 | 0.0 | 0.00 | 0.06 | 0.06 | 97 | 1001.6 |
| 20260510053932 | 53 | 230 | 0.0 | 0.0 | 0.00 | 0.06 | 0.06 | 97 | 1001.6 |
| 20260510053428 | 53 | 230 | 0.9 | 0.9 | 0.00 | 0.06 | 0.06 | 97 | 1001.5 |
| 20260510052925 | 53 | 230 | 0.0 | 0.0 | 0.00 | 0.06 | 0.06 | 96 | 1001.5 |
| 20260510052420 | 53 | 230 | 0.0 | 0.0 | 0.00 | 0.06 | 0.06 | 96 | 1001.4 |
| 20260510051917 | 54 | 230 | 0.0 | 0.0 | 0.00 | 0.06 | 0.06 | 96 | 1001.5 |
| 20260510051414 | 54 | 230 | 0.0 | 0.0 | 0.00 | 0.06 | 0.06 | 95 | 1001.4 |
| 20260510050910 | 54 | 230 | 0.0 | 0.0 | 0.00 | 0.06 | 0.06 | 95 | 1001.5 |
| 20260510050406 | 55 | 230 | 0.0 | 0.0 | 0.00 | 0.06 | 0.06 | 94 | 1001.3 |
| 20260510045904 | 55 | 235 | 0.0 | 0.0 | 0.00 | 0.06 | 0.06 | 94 | 1001.4 |
| 20260510045401 | 55 | 231 | 0.9 | 0.9 | 0.14 | 0.06 | 0.06 | 94 | 1001.3 |
| 20260510044858 | 55 | 230 | 0.0 | 0.9 | 0.12 | 0.05 | 0.05 | 94 | 1001.3 |
| 20260510044354 | 55 | 222 | 1.7 | 1.7 | 0.05 | 0.04 | 0.04 | 94 | 1001.7 |
| 20260510043851 | 55 | 231 | 0.9 | 1.7 | 0.00 | 0.03 | 0.03 | 95 | 1001.7 |
| 20260510043347 | 55 | 231 | 0.9 | 1.7 | 0.00 | 0.03 | 0.03 | 95 | 1001.8 |
| 20260510042845 | 55 | 239 | 0.0 | 0.0 | 0.00 | 0.03 | 0.03 | 96 | 1002.0 |
| 20260510042341 | 55 | 243 | 0.0 | 0.0 | 0.19 | 0.03 | 0.03 | 96 | 1001.9 |
| 20260510041837 | 55 | 228 | 1.7 | 1.7 | 0.19 | 0.03 | 0.03 | 96 | 1002.2 |
| 20260510041334 | 53 | 195 | 4.3 | 6.1 | 0.00 | 0.00 | 0.00 | 97 | 1002.0 |
| 20260510040832 | 53 | 236 | 0.0 | 0.0 | 0.00 | 0.00 | 0.00 | 97 | 1001.1 |
| 20260510040328 | 53 | 236 | 0.0 | 0.0 | 0.00 | 0.00 | 0.00 | 97 | 1001.2 |
| 20260510035824 | 53 | 236 | 0.0 | 0.0 | 0.00 | 0.18 | 0.18 | 96 | 1001.2 |
| 20260510035320 | 53 | 235 | 0.0 | 0.0 | 0.00 | 0.18 | 0.18 | 96 | 1001.1 |
| 20260510034816 | 53 | 235 | 0.0 | 0.0 | 0.00 | 0.18 | 0.18 | 96 | 1001.2 |
| 20260510034314 | 53 | 235 | 0.0 | 0.0 | 0.00 | 0.18 | 0.18 | 96 | 1001.3 |
| 20260510033810 | 53 | 235 | 0.0 | 0.0 | 0.00 | 0.18 | 0.18 | 96 | 1001.2 |
| 20260510033307 | 53 | 235 | 0.0 | 0.0 | 0.00 | 0.18 | 0.18 | 96 | 1001.3 |
| 20260510032803 | 54 | 236 | 0.0 | 0.0 | 0.00 | 0.18 | 0.18 | 96 | 1001.4 |
| 20260510032300 | 54 | 236 | 0.0 | 0.0 | 0.00 | 0.18 | 0.18 | 95 | 1001.3 |
| 20260510031756 | 54 | 236 | 0.0 | 0.0 | 0.00 | 0.18 | 0.18 | 95 | 1001.3 |
| 20260510031251 | 54 | 236 | 0.0 | 0.0 | 0.00 | 0.18 | 0.18 | 95 | 1001.1 |
| 20260510030745 | 55 | 236 | 0.0 | 0.0 | 0.00 | 0.18 | 0.18 | 95 | 1001.3 |
| 20260510030242 | 55 | 235 | 0.0 | 0.0 | 0.00 | 0.18 | 0.18 | 95 | 1001.3 |
| 20260510025740 | 55 | 235 | 0.0 | 0.0 | 0.00 | 0.18 | 0.18 | 94 | 1001.1 |
| 20260510025238 | 55 | 236 | 0.0 | 0.0 | 0.00 | 0.18 | 0.18 | 94 | 1001.3 |
| 20260510024734 | 55 | 233 | 0.0 | 0.0 | 0.00 | 0.18 | 0.18 | 94 | 1001.1 |
| 20260510024230 | 55 | 249 | 0.9 | 0.9 | 0.00 | 0.18 | 0.18 | 94 | 1001.3 |
| 20260510023726 | 55 | 255 | 0.9 | 0.9 | 0.00 | 0.18 | 0.18 | 94 | 1001.3 |
| 20260510023224 | 55 | 235 | 0.0 | 0.0 | 0.00 | 0.18 | 0.18 | 94 | 1000.7 |
| 20260510022720 | 55 | 235 | 0.0 | 0.0 | 0.00 | 0.18 | 0.18 | 94 | 1000.7 |
| 20260510022220 | 55 | 228 | 0.9 | 0.9 | 0.00 | 0.18 | 0.18 | 94 | 1001.1 |
| 20260510021715 | 55 | 237 | 0.0 | 0.0 | 0.00 | 0.18 | 0.18 | 94 | 1000.9 |
| 20260510021213 | 55 | 237 | 0.0 | 0.0 | 0.00 | 0.18 | 0.18 | 94 | 1000.4 |
| 20260510020708 | 56 | 237 | 0.0 | 0.0 | 0.00 | 0.18 | 0.18 | 93 | 1000.5 |
| 20260510020203 | 56 | 252 | 1.7 | 1.7 | 0.05 | 0.18 | 0.18 | 93 | 1000.5 |
| 20260510015659 | 55 | 232 | 0.0 | 0.0 | 0.00 | 0.17 | 0.17 | 93 | 1000.5 |
| 20260510015156 | 55 | 232 | 0.0 | 0.0 | 0.00 | 0.17 | 0.17 | 93 | 1000.2 |
| 20260510014656 | 55 | 232 | 0.0 | 0.0 | 0.00 | 0.17 | 0.17 | 93 | 1000.4 |
| 20260510014153 | 55 | 232 | 0.0 | 0.0 | 0.00 | 0.17 | 0.17 | 93 | 1000.4 |
| 20260510013648 | 55 | 232 | 0.0 | 0.0 | 0.00 | 0.17 | 0.17 | 92 | 1000.1 |
| 20260510013144 | 55 | 232 | 0.0 | 0.0 | 0.00 | 0.17 | 0.17 | 92 | 1000.4 |
| 20260510012644 | 55 | 232 | 0.0 | 0.0 | 0.00 | 0.17 | 0.17 | 92 | 1000.1 |
| 20260510012140 | 55 | 232 | 0.0 | 0.0 | 0.00 | 0.17 | 0.17 | 91 | 1000.2 |
| 20260510011635 | 55 | 232 | 0.0 | 0.0 | 0.00 | 0.17 | 0.17 | 91 | 1000.0 |
| 20260510011131 | 55 | 232 | 0.0 | 0.0 | 0.00 | 0.17 | 0.17 | 90 | 1000.0 |
| 20260510010627 | 56 | 232 | 0.0 | 0.0 | 0.00 | 0.17 | 0.17 | 89 | 1000.0 |
| 20260510010124 | 56 | 232 | 0.0 | 0.0 | 0.00 | 0.17 | 0.17 | 89 | 1000.1 |
| 20260510005619 | 57 | 232 | 0.0 | 0.0 | 0.00 | 0.17 | 0.17 | 88 | 1000.2 |
| 20260510005117 | 57 | 232 | 0.0 | 0.0 | 0.00 | 0.17 | 0.17 | 88 | 1000.1 |
| 20260510004615 | 57 | 232 | 0.0 | 0.0 | 0.00 | 0.17 | 0.17 | 88 | 1000.3 |
| 20260510004113 | 57 | 232 | 0.9 | 0.9 | 0.00 | 0.17 | 0.17 | 87 | 1000.1 |
| 20260510003610 | 57 | 231 | 0.0 | 0.0 | 0.00 | 0.17 | 0.17 | 87 | 999.8 |
| 20260510003106 | 58 | 236 | 0.9 | 0.9 | 0.00 | 0.17 | 0.17 | 86 | 999.8 |
| 20260510002600 | 59 | 230 | 1.7 | 1.7 | 0.00 | 0.17 | 0.17 | 85 | 999.6 |
| 20260510002057 | 59 | 256 | 1.7 | 1.7 | 0.00 | 0.17 | 0.17 | 82 | 999.9 |
| 20260510001555 | 60 | 272 | 2.6 | 4.3 | 0.00 | 0.17 | 0.17 | 81 | 999.5 |
| 20260510001054 | 61 | 234 | 1.7 | 2.6 | 0.00 | 0.17 | 0.17 | 78 | 999.6 |
| 20260510000548 | 63 | 210 | 1.7 | 1.7 | 0.00 | 0.17 | 0.17 | 74 | 999.8 |
| 20260510000046 | 67 | 251 | 1.7 | 1.7 | 0.00 | 0.17 | 0.17 | 61 | 998.7 |
| 20260509235542 | 67 | 207 | 0.9 | 0.9 | 0.00 | 0.17 | 0.17 | 61 | 998.5 |
| 20260509235038 | 67 | 243 | 0.9 | 0.9 | 0.00 | 0.17 | 0.17 | 61 | 998.6 |
| 20260509234534 | 67 | 94 | 0.9 | 0.9 | 0.00 | 0.17 | 0.17 | 62 | 998.3 |
| 20260509234033 | 67 | 218 | 2.6 | 4.3 | 0.00 | 0.17 | 0.17 | 60 | 998.3 |
| 20260509233530 | 67 | 232 | 1.7 | 1.7 | 0.00 | 0.17 | 0.17 | 60 | 998.3 |
| 20260509233027 | 68 | 254 | 0.9 | 1.7 | 0.00 | 0.17 | 0.17 | 59 | 998.2 |
| 20260509232524 | 68 | 237 | 0.9 | 1.7 | 0.00 | 0.17 | 0.17 | 59 | 998.3 |
| 20260509232020 | 69 | 236 | 0.0 | 0.9 | 0.00 | 0.17 | 0.17 | 58 | 998.2 |
| 20260509231517 | 68 | 235 | 1.7 | 1.7 | 0.00 | 0.17 | 0.17 | 58 | 998.2 |
| 20260509231015 | 69 | 210 | 2.6 | 4.3 | 0.00 | 0.17 | 0.17 | 57 | 998.1 |
| 20260509230511 | 69 | 216 | 3.5 | 5.2 | 0.00 | 0.17 | 0.17 | 57 | 998.1 |
| 20260509230008 | 69 | 222 | 4.3 | 7.0 | 0.00 | 0.17 | 0.17 | 59 | 998.1 |
| 20260509225503 | 69 | 223 | 1.7 | 1.7 | 0.00 | 0.17 | 0.17 | 58 | 998.0 |
| 20260509224959 | 69 | 98 | 4.3 | 7.0 | 0.00 | 0.17 | 0.17 | 57 | 998.1 |
| 20260509224455 | 69 | 334 | 0.9 | 1.7 | 0.00 | 0.17 | 0.17 | 61 | 997.9 |
| 20260509223952 | 69 | 240 | 0.0 | 0.0 | 0.00 | 0.17 | 0.17 | 59 | 998.2 |
| 20260509223449 | 69 | 236 | 1.7 | 2.6 | 0.00 | 0.17 | 0.17 | 58 | 998.1 |
| 20260509222946 | 69 | 216 | 1.7 | 1.7 | 0.00 | 0.17 | 0.17 | 58 | 998.0 |
| 20260509222442 | 69 | 223 | 2.6 | 4.3 | 0.00 | 0.17 | 0.17 | 58 | 998.0 |
| 20260509221938 | 69 | 198 | 3.5 | 5.2 | 0.00 | 0.17 | 0.17 | 60 | 998.0 |
| 20260509221434 | 69 | 215 | 0.9 | 1.7 | 0.00 | 0.17 | 0.17 | 59 | 998.0 |
| 20260509220930 | 69 | 179 | 0.9 | 1.7 | 0.00 | 0.17 | 0.17 | 60 | 998.1 |
| 20260509220426 | 69 | 242 | 1.7 | 4.3 | 0.00 | 0.17 | 0.17 | 61 | 998.1 |
| 20260509215923 | 69 | 227 | 4.3 | 4.3 | 0.00 | 0.17 | 0.17 | 60 | 998.0 |
| 20260509215418 | 70 | 215 | 1.7 | 2.6 | 0.00 | 0.17 | 0.17 | 59 | 997.9 |
| 20260509214916 | 70 | 232 | 1.7 | 1.7 | 0.00 | 0.17 | 0.17 | 60 | 998.0 |
| 20260509214413 | 70 | 233 | 2.6 | 4.3 | 0.00 | 0.17 | 0.17 | 59 | 998.0 |
| 20260509213910 | 70 | 180 | 1.7 | 2.6 | 0.00 | 0.17 | 0.17 | 58 | 998.1 |
| 20260509213405 | 70 | 200 | 2.6 | 4.3 | 0.00 | 0.17 | 0.17 | 58 | 998.1 |
| 20260509212903 | 70 | 188 | 3.5 | 7.0 | 0.00 | 0.17 | 0.17 | 57 | 998.2 |
| 20260509212400 | 71 | 220 | 2.6 | 2.6 | 0.00 | 0.17 | 0.17 | 56 | 998.3 |
| 20260509211856 | 71 | 194 | 1.7 | 1.7 | 0.00 | 0.17 | 0.17 | 54 | 998.1 |
| 20260509211352 | 72 | 235 | 0.9 | 0.9 | 0.00 | 0.17 | 0.17 | 56 | 998.1 |
| 20260509210849 | 71 | 247 | 0.0 | 0.9 | 0.00 | 0.17 | 0.17 | 56 | 998.3 |
| 20260509210346 | 71 | 216 | 2.6 | 2.6 | 0.00 | 0.17 | 0.17 | 53 | 998.3 |
| 20260509205846 | 72 | 213 | 0.9 | 0.9 | 0.00 | 0.17 | 0.17 | 55 | 998.4 |
| 20260509205341 | 72 | 239 | 0.9 | 0.9 | 0.00 | 0.17 | 0.17 | 54 | 998.6 |
| 20260509204838 | 71 | 225 | 1.7 | 2.6 | 0.00 | 0.17 | 0.17 | 56 | 998.5 |
| 20260509204334 | 71 | 126 | 0.9 | 1.7 | 0.00 | 0.17 | 0.17 | 56 | 998.8 |
| 20260509203830 | 71 | 227 | 2.6 | 2.6 | 0.00 | 0.17 | 0.17 | 56 | 998.5 |
| 20260509203327 | 71 | 216 | 1.7 | 1.7 | 0.00 | 0.17 | 0.17 | 55 | 998.7 |
| 20260509202823 | 70 | 230 | 2.6 | 4.3 | 0.00 | 0.17 | 0.17 | 56 | 999.0 |
| 20260509202320 | 70 | 228 | 3.5 | 5.2 | 0.00 | 0.17 | 0.17 | 55 | 999.0 |
| 20260509201819 | 70 | 202 | 5.2 | 7.8 | 0.00 | 0.17 | 0.17 | 56 | 998.8 |
| 20260509201316 | 70 | 206 | 2.6 | 4.3 | 0.00 | 0.17 | 0.17 | 56 | 999.1 |
| 20260509200812 | 70 | 202 | 2.6 | 2.6 | 0.00 | 0.17 | 0.17 | 58 | 999.2 |
| 20260509200308 | 70 | 207 | 1.7 | 2.6 | 0.00 | 0.17 | 0.17 | 58 | 999.0 |
| 20260509195804 | 69 | 227 | 4.3 | 7.0 | 0.00 | 0.17 | 0.17 | 58 | 999.2 |
| 20260509195300 | 70 | 204 | 4.3 | 6.1 | 0.00 | 0.17 | 0.17 | 57 | 999.0 |
| 20260509194759 | 69 | 214 | 1.7 | 1.7 | 0.00 | 0.17 | 0.17 | 59 | 999.1 |
| 20260509194256 | 69 | 248 | 6.1 | 7.0 | 0.00 | 0.17 | 0.17 | 58 | 999.2 |
| 20260509193753 | 70 | 215 | 1.7 | 2.6 | 0.00 | 0.17 | 0.17 | 58 | 999.5 |
| 20260509193247 | 69 | 207 | 2.6 | 2.6 | 0.00 | 0.17 | 0.17 | 59 | 999.3 |
| 20260509192743 | 69 | 241 | 3.5 | 4.3 | 0.00 | 0.17 | 0.17 | 58 | 999.3 |
| 20260509192238 | 69 | 220 | 1.7 | 2.6 | 0.00 | 0.17 | 0.17 | 59 | 999.6 |
| 20260509191734 | 69 | 229 | 2.6 | 2.6 | 0.00 | 0.17 | 0.17 | 61 | 999.4 |
| 20260509191231 | 70 | 198 | 0.9 | 2.6 | 0.00 | 0.17 | 0.17 | 61 | 999.3 |
| 20260509190727 | 70 | 228 | 1.7 | 1.7 | 0.00 | 0.17 | 0.17 | 61 | 999.6 |
| 20260509190224 | 69 | 210 | 3.5 | 4.3 | 0.00 | 0.17 | 0.17 | 59 | 999.8 |
| 20260509185721 | 68 | 215 | 3.5 | 4.3 | 0.00 | 0.17 | 0.17 | 61 | 999.5 |
| 20260509185217 | 69 | 212 | 2.6 | 4.3 | 0.00 | 0.17 | 0.17 | 62 | 999.7 |
| 20260509184715 | 69 | 232 | 1.7 | 1.7 | 0.00 | 0.17 | 0.17 | 62 | 999.6 |
| 20260509184212 | 68 | 234 | 3.5 | 5.2 | 0.00 | 0.17 | 0.17 | 64 | 999.8 |
| 20260509183708 | 67 | 189 | 3.5 | 4.3 | 0.00 | 0.17 | 0.17 | 64 | 999.6 |
| 20260509183203 | 68 | 125 | 2.6 | 4.3 | 0.00 | 0.17 | 0.17 | 63 | 999.9 |
| 20260509182659 | 68 | 231 | 2.6 | 6.1 | 0.00 | 0.17 | 0.17 | 62 | 999.7 |
| 20260509182157 | 68 | 243 | 1.7 | 1.7 | 0.00 | 0.17 | 0.17 | 63 | 999.9 |
| 20260509181655 | 67 | 223 | 1.7 | 2.6 | 0.00 | 0.17 | 0.17 | 67 | 999.8 |
| 20260509181152 | 67 | 197 | 1.7 | 2.6 | 0.00 | 0.17 | 0.17 | 68 | 999.9 |
| 20260509180649 | 67 | 223 | 2.6 | 2.6 | 0.00 | 0.17 | 0.17 | 70 | 999.6 |